sensor_id;sensor_type;location;lat;lon;timestamp;pressure;altitude;pressure_sealevel;temperature;humidity
72896;BME280;61036;53.224;6.554;2023-01-10T00:00:31;100949.50;;;3.81;100.00
72896;BME280;61036;53.224;6.554;2023-01-10T00:03:03;100957.22;;;3.87;100.00
72896;BME280;61036;53.224;6.554;2023-01-10T00:05:33;100975.00;;;3.88;100.00
72896;BME280;61036;53.224;6.554;2023-01-10T00:08:00;100977.66;;;3.88;100.00
72896;BME280;61036;53.224;6.554;2023-01-10T00:10:30;100980.59;;;3.82;100.00
72896;BME280;61036;53.224;6.554;2023-01-10T00:12:56;100980.59;;;3.82;100.00
72896;BME280;61036;53.224;6.554;2023-01-10T00:15:40;100989.38;;;3.84;100.00
72896;BME280;61036;53.224;6.554;2023-01-10T00:18:06;100996.47;;;3.85;100.00
72896;BME280;61036;53.224;6.554;2023-01-10T00:20:32;100993.53;;;3.92;100.00
72896;BME280;61036;53.224;6.554;2023-01-10T00:22:59;101006.31;;;3.83;100.00
72896;BME280;61036;53.224;6.554;2023-01-10T00:25:25;101015.06;;;3.87;100.00
72896;BME280;61036;53.224;6.554;2023-01-10T00:27:54;101017.81;;;3.85;100.00
72896;BME280;61036;53.224;6.554;2023-01-10T00:30:49;101030.13;;;3.88;100.00
72896;BME280;61036;53.224;6.554;2023-01-10T00:33:29;101029.97;;;3.91;100.00
72896;BME280;61036;53.224;6.554;2023-01-10T00:35:56;101028.22;;;3.92;100.00
72896;BME280;61036;53.224;6.554;2023-01-10T00:38:22;101026.25;;;3.95;100.00
72896;BME280;61036;53.224;6.554;2023-01-10T00:40:49;101033.13;;;4.01;100.00
72896;BME280;61036;53.224;6.554;2023-01-10T00:43:16;101041.59;;;4.10;100.00
72896;BME280;61036;53.224;6.554;2023-01-10T00:46:00;101049.13;;;4.01;100.00
72896;BME280;61036;53.224;6.554;2023-01-10T00:48:29;101048.88;;;4.07;100.00
72896;BME280;61036;53.224;6.554;2023-01-10T00:50:54;101053.81;;;3.96;100.00
72896;BME280;61036;53.224;6.554;2023-01-10T00:53:20;101055.53;;;3.97;100.00
72896;BME280;61036;53.224;6.554;2023-01-10T00:55:46;101065.31;;;4.17;100.00
72896;BME280;61036;53.224;6.554;2023-01-10T00:58:13;101065.84;;;4.25;100.00
72896;BME280;61036;53.224;6.554;2023-01-10T01:00:40;101067.38;;;4.30;100.00
72896;BME280;61036;53.224;6.554;2023-01-10T01:03:06;101062.69;;;4.35;100.00
72896;BME280;61036;53.224;6.554;2023-01-10T01:05:38;101050.69;;;4.25;100.00
72896;BME280;61036;53.224;6.554;2023-01-10T01:08:04;101066.50;;;4.30;100.00
72896;BME280;61036;53.224;6.554;2023-01-10T01:10:29;101078.09;;;4.49;100.00
72896;BME280;61036;53.224;6.554;2023-01-10T01:12:57;101085.44;;;4.63;100.00
72896;BME280;61036;53.224;6.554;2023-01-10T01:15:24;101084.66;;;4.61;100.00
72896;BME280;61036;53.224;6.554;2023-01-10T01:17:50;101080.84;;;4.67;100.00
72896;BME280;61036;53.224;6.554;2023-01-10T01:20:16;101084.81;;;4.77;100.00
72896;BME280;61036;53.224;6.554;2023-01-10T01:22:44;101080.56;;;4.73;100.00
72896;BME280;61036;53.224;6.554;2023-01-10T01:25:10;101091.97;;;4.76;100.00
72896;BME280;61036;53.224;6.554;2023-01-10T01:27:35;101101.34;;;4.66;100.00
72896;BME280;61036;53.224;6.554;2023-01-10T01:30:04;101100.59;;;4.63;100.00
72896;BME280;61036;53.224;6.554;2023-01-10T01:32:32;101102.41;;;4.62;100.00
72896;BME280;61036;53.224;6.554;2023-01-10T01:34:57;101106.03;;;4.61;100.00
72896;BME280;61036;53.224;6.554;2023-01-10T01:37:23;101108.13;;;4.54;100.00
72896;BME280;61036;53.224;6.554;2023-01-10T01:39:49;101110.72;;;4.56;100.00
72896;BME280;61036;53.224;6.554;2023-01-10T01:42:27;101119.44;;;4.59;100.00
72896;BME280;61036;53.224;6.554;2023-01-10T01:47:47;101125.69;;;4.79;100.00
72896;BME280;61036;53.224;6.554;2023-01-10T01:50:18;101124.69;;;4.81;100.00
72896;BME280;61036;53.224;6.554;2023-01-10T01:52:46;101123.59;;;4.67;100.00
72896;BME280;61036;53.224;6.554;2023-01-10T01:55:13;101132.81;;;4.59;100.00
72896;BME280;61036;53.224;6.554;2023-01-10T01:57:39;101138.84;;;4.44;100.00
72896;BME280;61036;53.224;6.554;2023-01-10T02:00:08;101144.25;;;4.43;100.00
72896;BME280;61036;53.224;6.554;2023-01-10T02:02:47;101147.38;;;4.52;100.00
72896;BME280;61036;53.224;6.554;2023-01-10T02:05:16;101158.94;;;4.72;100.00
72896;BME280;61036;53.224;6.554;2023-01-10T02:07:45;101165.19;;;4.72;100.00
72896;BME280;61036;53.224;6.554;2023-01-10T02:10:48;101170.25;;;4.78;100.00
72896;BME280;61036;53.224;6.554;2023-01-10T02:13:19;101156.16;;;4.75;100.00
72896;BME280;61036;53.224;6.554;2023-01-10T02:15:48;101163.44;;;4.71;100.00
72896;BME280;61036;53.224;6.554;2023-01-10T02:18:17;101156.97;;;4.56;100.00
72896;BME280;61036;53.224;6.554;2023-01-10T02:35:17;101153.69;;;4.70;100.00
72896;BME280;61036;53.224;6.554;2023-01-10T02:38:03;101159.97;;;4.69;100.00
72896;BME280;61036;53.224;6.554;2023-01-10T02:40:54;101160.72;;;4.73;100.00
72896;BME280;61036;53.224;6.554;2023-01-10T02:43:29;101156.41;;;4.69;100.00
72896;BME280;61036;53.224;6.554;2023-01-10T02:46:05;101162.00;;;4.64;100.00
72896;BME280;61036;53.224;6.554;2023-01-10T02:48:34;101160.84;;;4.70;100.00
72896;BME280;61036;53.224;6.554;2023-01-10T02:53:36;101167.47;;;4.61;100.00
72896;BME280;61036;53.224;6.554;2023-01-10T03:04:07;101189.25;;;4.72;100.00
72896;BME280;61036;53.224;6.554;2023-01-10T03:06:54;101191.50;;;4.81;100.00
72896;BME280;61036;53.224;6.554;2023-01-10T03:09:28;101196.22;;;4.75;100.00
72896;BME280;61036;53.224;6.554;2023-01-10T03:12:15;101196.03;;;4.59;100.00
72896;BME280;61036;53.224;6.554;2023-01-10T03:14:46;101192.78;;;4.52;100.00
72896;BME280;61036;53.224;6.554;2023-01-10T03:17:14;101198.97;;;4.53;100.00
72896;BME280;61036;53.224;6.554;2023-01-10T03:19:48;101204.88;;;4.61;100.00
72896;BME280;61036;53.224;6.554;2023-01-10T03:22:16;101195.84;;;4.64;100.00
72896;BME280;61036;53.224;6.554;2023-01-10T03:24:45;101202.06;;;4.64;100.00
72896;BME280;61036;53.224;6.554;2023-01-10T03:27:19;101202.69;;;4.69;100.00
72896;BME280;61036;53.224;6.554;2023-01-10T03:32:23;101231.22;;;4.89;100.00
72896;BME280;61036;53.224;6.554;2023-01-10T03:34:51;101234.03;;;5.05;100.00
72896;BME280;61036;53.224;6.554;2023-01-10T03:40:46;101237.47;;;5.09;100.00
72896;BME280;61036;53.224;6.554;2023-01-10T03:43:39;101241.72;;;5.13;100.00
72896;BME280;61036;53.224;6.554;2023-01-10T03:46:35;101253.13;;;5.16;100.00
72896;BME280;61036;53.224;6.554;2023-01-10T03:49:04;101256.81;;;5.14;100.00
72896;BME280;61036;53.224;6.554;2023-01-10T03:51:31;101257.53;;;5.17;100.00
72896;BME280;61036;53.224;6.554;2023-01-10T03:54:01;101256.47;;;5.21;100.00
72896;BME280;61036;53.224;6.554;2023-01-10T03:56:27;101258.34;;;5.19;100.00
72896;BME280;61036;53.224;6.554;2023-01-10T03:58:54;101260.56;;;5.10;100.00
72896;BME280;61036;53.224;6.554;2023-01-10T04:01:23;101264.19;;;5.09;100.00
72896;BME280;61036;53.224;6.554;2023-01-10T04:03:50;101260.63;;;5.08;100.00
72896;BME280;61036;53.224;6.554;2023-01-10T04:06:16;101265.63;;;4.97;100.00
72896;BME280;61036;53.224;6.554;2023-01-10T04:08:44;101260.16;;;4.79;100.00
72896;BME280;61036;53.224;6.554;2023-01-10T04:11:10;101265.22;;;4.65;100.00
72896;BME280;61036;53.224;6.554;2023-01-10T04:13:36;101262.41;;;4.68;100.00
72896;BME280;61036;53.224;6.554;2023-01-10T04:16:05;101258.88;;;4.68;100.00
72896;BME280;61036;53.224;6.554;2023-01-10T04:18:31;101268.75;;;4.66;100.00
72896;BME280;61036;53.224;6.554;2023-01-10T04:20:59;101272.16;;;4.69;100.00
72896;BME280;61036;53.224;6.554;2023-01-10T04:23:27;101271.25;;;4.70;100.00
72896;BME280;61036;53.224;6.554;2023-01-10T04:25:53;101274.31;;;4.81;100.00
72896;BME280;61036;53.224;6.554;2023-01-10T04:28:19;101268.97;;;4.81;100.00
72896;BME280;61036;53.224;6.554;2023-01-10T04:30:44;101282.66;;;4.74;100.00
72896;BME280;61036;53.224;6.554;2023-01-10T04:33:11;101279.94;;;4.75;100.00
72896;BME280;61036;53.224;6.554;2023-01-10T04:35:36;101283.72;;;4.70;100.00
72896;BME280;61036;53.224;6.554;2023-01-10T04:38:02;101288.31;;;4.66;100.00
72896;BME280;61036;53.224;6.554;2023-01-10T04:40:28;101293.59;;;4.68;100.00
72896;BME280;61036;53.224;6.554;2023-01-10T04:42:54;101293.88;;;4.82;100.00
72896;BME280;61036;53.224;6.554;2023-01-10T04:45:20;101303.56;;;4.85;100.00
72896;BME280;61036;53.224;6.554;2023-01-10T04:47:51;101312.25;;;4.90;100.00
72896;BME280;61036;53.224;6.554;2023-01-10T04:50:17;101322.59;;;4.97;100.00
72896;BME280;61036;53.224;6.554;2023-01-10T04:52:44;101328.88;;;4.96;100.00
72896;BME280;61036;53.224;6.554;2023-01-10T04:55:11;101335.28;;;4.92;100.00
72896;BME280;61036;53.224;6.554;2023-01-10T04:57:38;101334.44;;;4.92;100.00
72896;BME280;61036;53.224;6.554;2023-01-10T05:00:04;101328.34;;;4.88;100.00
72896;BME280;61036;53.224;6.554;2023-01-10T05:02:30;101331.03;;;4.88;100.00
72896;BME280;61036;53.224;6.554;2023-01-10T05:04:58;101329.91;;;4.94;100.00
72896;BME280;61036;53.224;6.554;2023-01-10T05:07:24;101330.63;;;4.77;100.00
72896;BME280;61036;53.224;6.554;2023-01-10T05:09:50;101335.28;;;4.72;100.00
72896;BME280;61036;53.224;6.554;2023-01-10T05:12:17;101348.03;;;4.65;100.00
72896;BME280;61036;53.224;6.554;2023-01-10T05:14:43;101355.91;;;4.68;100.00
72896;BME280;61036;53.224;6.554;2023-01-10T05:17:08;101360.00;;;4.77;100.00
72896;BME280;61036;53.224;6.554;2023-01-10T05:19:34;101368.31;;;4.91;100.00
72896;BME280;61036;53.224;6.554;2023-01-10T05:22:00;101375.25;;;4.95;100.00
72896;BME280;61036;53.224;6.554;2023-01-10T05:24:27;101378.66;;;4.99;100.00
72896;BME280;61036;53.224;6.554;2023-01-10T05:26:53;101373.31;;;4.99;100.00
72896;BME280;61036;53.224;6.554;2023-01-10T05:29:19;101370.50;;;5.02;100.00
72896;BME280;61036;53.224;6.554;2023-01-10T05:31:45;101372.00;;;5.09;100.00
72896;BME280;61036;53.224;6.554;2023-01-10T05:34:11;101369.38;;;5.08;100.00
72896;BME280;61036;53.224;6.554;2023-01-10T05:36:37;101365.16;;;5.02;100.00
72896;BME280;61036;53.224;6.554;2023-01-10T05:39:06;101379.28;;;5.06;100.00
72896;BME280;61036;53.224;6.554;2023-01-10T05:41:32;101382.94;;;5.03;100.00
72896;BME280;61036;53.224;6.554;2023-01-10T05:43:58;101380.16;;;5.06;100.00
72896;BME280;61036;53.224;6.554;2023-01-10T05:46:25;101390.09;;;5.23;100.00
72896;BME280;61036;53.224;6.554;2023-01-10T05:48:51;101398.50;;;5.14;100.00
72896;BME280;61036;53.224;6.554;2023-01-10T05:51:18;101394.03;;;5.14;100.00
72896;BME280;61036;53.224;6.554;2023-01-10T05:53:44;101391.16;;;5.19;100.00
72896;BME280;61036;53.224;6.554;2023-01-10T05:56:13;101390.31;;;5.18;100.00
72896;BME280;61036;53.224;6.554;2023-01-10T05:58:39;101391.84;;;5.24;100.00
72896;BME280;61036;53.224;6.554;2023-01-10T06:01:06;101392.03;;;5.19;100.00
72896;BME280;61036;53.224;6.554;2023-01-10T06:03:33;101390.63;;;5.11;100.00
72896;BME280;61036;53.224;6.554;2023-01-10T06:05:59;101402.78;;;4.97;100.00
72896;BME280;61036;53.224;6.554;2023-01-10T06:08:25;101403.97;;;4.90;100.00
72896;BME280;61036;53.224;6.554;2023-01-10T06:10:51;101405.97;;;4.85;100.00
72896;BME280;61036;53.224;6.554;2023-01-10T06:13:17;101406.91;;;4.84;100.00
72896;BME280;61036;53.224;6.554;2023-01-10T06:15:43;101406.97;;;4.82;100.00
72896;BME280;61036;53.224;6.554;2023-01-10T06:18:10;101416.72;;;4.84;100.00
72896;BME280;61036;53.224;6.554;2023-01-10T06:20:36;101411.50;;;4.80;100.00
72896;BME280;61036;53.224;6.554;2023-01-10T06:23:03;101417.09;;;4.74;100.00
72896;BME280;61036;53.224;6.554;2023-01-10T06:25:33;101422.09;;;4.62;100.00
72896;BME280;61036;53.224;6.554;2023-01-10T06:28:01;101437.13;;;4.64;100.00
72896;BME280;61036;53.224;6.554;2023-01-10T06:30:27;101437.88;;;4.68;100.00
72896;BME280;61036;53.224;6.554;2023-01-10T06:32:53;101424.34;;;4.72;100.00
72896;BME280;61036;53.224;6.554;2023-01-10T06:35:19;101416.50;;;4.68;100.00
72896;BME280;61036;53.224;6.554;2023-01-10T06:37:45;101424.31;;;4.50;100.00
72896;BME280;61036;53.224;6.554;2023-01-10T06:40:12;101435.31;;;4.43;100.00
72896;BME280;61036;53.224;6.554;2023-01-10T06:42:41;101423.66;;;4.45;100.00
72896;BME280;61036;53.224;6.554;2023-01-10T06:45:08;101424.38;;;4.27;100.00
72896;BME280;61036;53.224;6.554;2023-01-10T06:47:34;101426.28;;;4.23;100.00
72896;BME280;61036;53.224;6.554;2023-01-10T06:49:59;101432.56;;;4.22;100.00
72896;BME280;61036;53.224;6.554;2023-01-10T06:52:26;101434.38;;;4.22;100.00
72896;BME280;61036;53.224;6.554;2023-01-10T06:54:52;101438.25;;;4.13;100.00
72896;BME280;61036;53.224;6.554;2023-01-10T06:57:18;101430.50;;;4.07;100.00
72896;BME280;61036;53.224;6.554;2023-01-10T06:59:45;101436.81;;;4.04;100.00
72896;BME280;61036;53.224;6.554;2023-01-10T07:02:11;101440.13;;;4.11;100.00
72896;BME280;61036;53.224;6.554;2023-01-10T07:04:37;101440.53;;;4.00;100.00
72896;BME280;61036;53.224;6.554;2023-01-10T07:07:02;101447.66;;;4.00;100.00
72896;BME280;61036;53.224;6.554;2023-01-10T07:09:28;101466.06;;;4.07;100.00
72896;BME280;61036;53.224;6.554;2023-01-10T07:11:54;101483.91;;;4.29;100.00
72896;BME280;61036;53.224;6.554;2023-01-10T07:14:20;101485.88;;;4.47;100.00
72896;BME280;61036;53.224;6.554;2023-01-10T07:16:46;101499.84;;;4.54;100.00
72896;BME280;61036;53.224;6.554;2023-01-10T07:19:12;101514.66;;;4.63;100.00
72896;BME280;61036;53.224;6.554;2023-01-10T07:21:38;101508.94;;;4.72;100.00
72896;BME280;61036;53.224;6.554;2023-01-10T07:24:07;101515.06;;;4.75;100.00
72896;BME280;61036;53.224;6.554;2023-01-10T07:26:33;101515.06;;;4.75;100.00
72896;BME280;61036;53.224;6.554;2023-01-10T07:29:00;101520.28;;;4.78;100.00
72896;BME280;61036;53.224;6.554;2023-01-10T07:31:26;101515.78;;;4.79;100.00
72896;BME280;61036;53.224;6.554;2023-01-10T07:33:56;101510.69;;;4.73;100.00
72896;BME280;61036;53.224;6.554;2023-01-10T07:36:22;101515.19;;;4.72;100.00
72896;BME280;61036;53.224;6.554;2023-01-10T07:38:48;101523.97;;;4.74;100.00
72896;BME280;61036;53.224;6.554;2023-01-10T07:41:13;101527.47;;;4.76;100.00
72896;BME280;61036;53.224;6.554;2023-01-10T07:43:39;101532.50;;;4.84;100.00
72896;BME280;61036;53.224;6.554;2023-01-10T07:46:09;101538.59;;;4.88;100.00
72896;BME280;61036;53.224;6.554;2023-01-10T07:48:37;101543.81;;;4.91;100.00
72896;BME280;61036;53.224;6.554;2023-01-10T07:51:04;101547.38;;;4.91;100.00
72896;BME280;61036;53.224;6.554;2023-01-10T07:53:30;101551.03;;;4.89;100.00
72896;BME280;61036;53.224;6.554;2023-01-10T07:56:02;101564.03;;;4.98;100.00
72896;BME280;61036;53.224;6.554;2023-01-10T07:58:28;101561.66;;;5.12;100.00
72896;BME280;61036;53.224;6.554;2023-01-10T08:01:02;101556.75;;;5.01;100.00
72896;BME280;61036;53.224;6.554;2023-01-10T08:03:29;101553.44;;;4.95;100.00
72896;BME280;61036;53.224;6.554;2023-01-10T08:05:59;101550.47;;;5.02;100.00
72896;BME280;61036;53.224;6.554;2023-01-10T08:08:25;101546.38;;;4.94;100.00
72896;BME280;61036;53.224;6.554;2023-01-10T08:10:50;101548.84;;;4.98;100.00
72896;BME280;61036;53.224;6.554;2023-01-10T08:13:18;101554.16;;;5.00;100.00
72896;BME280;61036;53.224;6.554;2023-01-10T08:15:46;101542.28;;;4.85;100.00
72896;BME280;61036;53.224;6.554;2023-01-10T08:18:14;101540.72;;;4.79;100.00
72896;BME280;61036;53.224;6.554;2023-01-10T08:20:41;101544.38;;;4.77;100.00
72896;BME280;61036;53.224;6.554;2023-01-10T08:23:07;101556.78;;;4.78;100.00
72896;BME280;61036;53.224;6.554;2023-01-10T08:25:34;101570.84;;;4.83;100.00
72896;BME280;61036;53.224;6.554;2023-01-10T08:28:01;101568.53;;;4.96;100.00
72896;BME280;61036;53.224;6.554;2023-01-10T08:30:26;101577.72;;;5.12;100.00
72896;BME280;61036;53.224;6.554;2023-01-10T08:32:55;101575.03;;;5.12;100.00
72896;BME280;61036;53.224;6.554;2023-01-10T08:35:22;101568.94;;;5.09;100.00
72896;BME280;61036;53.224;6.554;2023-01-10T08:37:49;101575.81;;;5.14;100.00
72896;BME280;61036;53.224;6.554;2023-01-10T08:40:15;101572.66;;;5.04;100.00
72896;BME280;61036;53.224;6.554;2023-01-10T08:42:42;101566.66;;;4.99;100.00
72896;BME280;61036;53.224;6.554;2023-01-10T08:45:09;101577.13;;;5.04;100.00
72896;BME280;61036;53.224;6.554;2023-01-10T08:47:35;101580.63;;;5.06;100.00
72896;BME280;61036;53.224;6.554;2023-01-10T08:50:01;101589.72;;;5.24;100.00
72896;BME280;61036;53.224;6.554;2023-01-10T08:52:30;101595.56;;;5.34;100.00
72896;BME280;61036;53.224;6.554;2023-01-10T08:54:56;101602.06;;;5.48;100.00
72896;BME280;61036;53.224;6.554;2023-01-10T08:57:23;101610.06;;;5.70;100.00
72896;BME280;61036;53.224;6.554;2023-01-10T08:59:50;101599.00;;;6.79;100.00
72896;BME280;61036;53.224;6.554;2023-01-10T09:02:17;101591.75;;;7.00;100.00
72896;BME280;61036;53.224;6.554;2023-01-10T09:04:43;101596.84;;;6.29;100.00
72896;BME280;61036;53.224;6.554;2023-01-10T09:07:10;101600.38;;;5.46;100.00
72896;BME280;61036;53.224;6.554;2023-01-10T09:09:36;101601.34;;;5.45;100.00
72896;BME280;61036;53.224;6.554;2023-01-10T09:12:01;101594.09;;;5.69;100.00
72896;BME280;61036;53.224;6.554;2023-01-10T09:14:47;101597.75;;;5.66;100.00
72896;BME280;61036;53.224;6.554;2023-01-10T09:17:13;101605.91;;;5.41;100.00
72896;BME280;61036;53.224;6.554;2023-01-10T09:19:39;101612.94;;;5.44;100.00
72896;BME280;61036;53.224;6.554;2023-01-10T09:22:05;101617.38;;;5.45;100.00
72896;BME280;61036;53.224;6.554;2023-01-10T09:24:31;101615.31;;;5.52;100.00
72896;BME280;61036;53.224;6.554;2023-01-10T09:26:58;101615.88;;;5.60;100.00
72896;BME280;61036;53.224;6.554;2023-01-10T09:29:24;101613.38;;;5.55;100.00
72896;BME280;61036;53.224;6.554;2023-01-10T09:31:50;101623.69;;;5.64;100.00
72896;BME280;61036;53.224;6.554;2023-01-10T09:34:16;101618.69;;;5.57;100.00
72896;BME280;61036;53.224;6.554;2023-01-10T09:36:44;101614.25;;;5.56;100.00
72896;BME280;61036;53.224;6.554;2023-01-10T09:39:12;101621.16;;;5.61;100.00
72896;BME280;61036;53.224;6.554;2023-01-10T09:44:38;101611.75;;;5.73;100.00
72896;BME280;61036;53.224;6.554;2023-01-10T09:50:02;101603.22;;;6.06;100.00
72896;BME280;61036;53.224;6.554;2023-01-10T09:52:34;101613.38;;;5.98;100.00
72896;BME280;61036;53.224;6.554;2023-01-10T09:55:17;101614.63;;;5.89;100.00
72896;BME280;61036;53.224;6.554;2023-01-10T09:57:47;101617.31;;;5.89;100.00
72896;BME280;61036;53.224;6.554;2023-01-10T10:00:23;101612.56;;;5.95;100.00
72896;BME280;61036;53.224;6.554;2023-01-10T10:02:52;101620.41;;;6.00;100.00
72896;BME280;61036;53.224;6.554;2023-01-10T10:05:21;101623.09;;;6.21;100.00
72896;BME280;61036;53.224;6.554;2023-01-10T10:08:16;101610.75;;;6.37;100.00
72896;BME280;61036;53.224;6.554;2023-01-10T10:10:53;101617.75;;;6.60;100.00
72896;BME280;61036;53.224;6.554;2023-01-10T10:13:37;101610.06;;;6.52;100.00
72896;BME280;61036;53.224;6.554;2023-01-10T10:17:15;101608.66;;;6.44;100.00
72896;BME280;61036;53.224;6.554;2023-01-10T10:19:22;101597.09;;;6.43;100.00
72896;BME280;61036;53.224;6.554;2023-01-10T10:28:00;101589.28;;;6.38;100.00
72896;BME280;61036;53.224;6.554;2023-01-10T10:36:17;101591.03;;;6.19;100.00
72896;BME280;61036;53.224;6.554;2023-01-10T10:38:47;101567.06;;;6.16;100.00
72896;BME280;61036;53.224;6.554;2023-01-10T10:41:31;101569.19;;;6.28;100.00
72896;BME280;61036;53.224;6.554;2023-01-10T10:43:59;101572.75;;;6.29;100.00
72896;BME280;61036;53.224;6.554;2023-01-10T10:46:30;101570.31;;;6.23;100.00
72896;BME280;61036;53.224;6.554;2023-01-10T10:49:00;101572.75;;;6.29;100.00
72896;BME280;61036;53.224;6.554;2023-01-10T10:54:02;101570.84;;;6.31;100.00
72896;BME280;61036;53.224;6.554;2023-01-10T10:56:32;101568.16;;;6.31;100.00
72896;BME280;61036;53.224;6.554;2023-01-10T10:58:59;101568.03;;;6.34;100.00
72896;BME280;61036;53.224;6.554;2023-01-10T11:01:25;101564.78;;;6.46;100.00
72896;BME280;61036;53.224;6.554;2023-01-10T11:04:05;101571.66;;;6.33;100.00
72896;BME280;61036;53.224;6.554;2023-01-10T11:06:35;101570.44;;;6.40;100.00
72896;BME280;61036;53.224;6.554;2023-01-10T11:09:05;101567.75;;;6.40;100.00
72896;BME280;61036;53.224;6.554;2023-01-10T11:11:38;101559.50;;;6.45;100.00
72896;BME280;61036;53.224;6.554;2023-01-10T11:14:08;101567.94;;;6.56;100.00
72896;BME280;61036;53.224;6.554;2023-01-10T11:16:40;101559.84;;;6.37;100.00
72896;BME280;61036;53.224;6.554;2023-01-10T11:19:23;101552.34;;;6.45;100.00
72896;BME280;61036;53.224;6.554;2023-01-10T11:21:56;101539.75;;;6.47;100.00
72896;BME280;61036;53.224;6.554;2023-01-10T11:24:32;101546.41;;;6.38;100.00
72896;BME280;61036;53.224;6.554;2023-01-10T11:30:27;101551.63;;;6.41;100.00
72896;BME280;61036;53.224;6.554;2023-01-10T11:32:57;101545.13;;;6.47;100.00
72896;BME280;61036;53.224;6.554;2023-01-10T11:35:27;101550.63;;;6.44;100.00
72896;BME280;61036;53.224;6.554;2023-01-10T11:38:01;101539.94;;;6.43;100.00
72896;BME280;61036;53.224;6.554;2023-01-10T11:40:31;101535.31;;;6.46;100.00
72896;BME280;61036;53.224;6.554;2023-01-10T11:42:58;101540.53;;;6.49;100.00
72896;BME280;61036;53.224;6.554;2023-01-10T11:47:58;101532.78;;;6.43;100.00
72896;BME280;61036;53.224;6.554;2023-01-10T11:50:31;101523.06;;;6.40;100.00
72896;BME280;61036;53.224;6.554;2023-01-10T11:53:00;101530.34;;;6.38;100.00
72896;BME280;61036;53.224;6.554;2023-01-10T11:55:31;101527.28;;;6.46;100.00
72896;BME280;61036;53.224;6.554;2023-01-10T11:58:07;101529.81;;;6.49;100.00
72896;BME280;61036;53.224;6.554;2023-01-10T12:00:45;101532.19;;;6.55;100.00
72896;BME280;61036;53.224;6.554;2023-01-10T12:03:25;101525.06;;;6.56;100.00
72896;BME280;61036;53.224;6.554;2023-01-10T12:05:59;101511.88;;;6.51;100.00
72896;BME280;61036;53.224;6.554;2023-01-10T12:08:29;101520.09;;;6.47;100.00
72896;BME280;61036;53.224;6.554;2023-01-10T12:11:04;101511.34;;;6.43;100.00
72896;BME280;61036;53.224;6.554;2023-01-10T12:13:44;101508.19;;;6.35;100.00
72896;BME280;61036;53.224;6.554;2023-01-10T12:16:15;101504.31;;;6.40;100.00
72896;BME280;61036;53.224;6.554;2023-01-10T12:18:41;101511.88;;;6.32;100.00
72896;BME280;61036;53.224;6.554;2023-01-10T12:21:11;101497.66;;;6.30;100.00
72896;BME280;61036;53.224;6.554;2023-01-10T12:23:39;101490.72;;;6.45;100.00
72896;BME280;61036;53.224;6.554;2023-01-10T12:26:08;101484.22;;;6.32;100.00
72896;BME280;61036;53.224;6.554;2023-01-10T12:28:41;101477.75;;;6.36;100.00
72896;BME280;61036;53.224;6.554;2023-01-10T12:31:13;101473.41;;;6.33;100.00
72896;BME280;61036;53.224;6.554;2023-01-10T12:33:52;101476.31;;;6.29;100.00
72896;BME280;61036;53.224;6.554;2023-01-10T12:36:34;101474.56;;;6.28;100.00
72896;BME280;61036;53.224;6.554;2023-01-10T12:39:13;101472.59;;;6.31;100.00
72896;BME280;61036;53.224;6.554;2023-01-10T12:44:45;101458.00;;;6.38;100.00
72896;BME280;61036;53.224;6.554;2023-01-10T12:50:18;101446.88;;;6.29;100.00
72896;BME280;61036;53.224;6.554;2023-01-10T12:55:43;101452.03;;;6.13;100.00
72896;BME280;61036;53.224;6.554;2023-01-10T12:58:23;101456.34;;;6.17;100.00
72896;BME280;61036;53.224;6.554;2023-01-10T13:00:57;101451.66;;;6.02;100.00
72896;BME280;61036;53.224;6.554;2023-01-10T13:03:29;101448.59;;;6.11;100.00
72896;BME280;61036;53.224;6.554;2023-01-10T13:05:56;101438.16;;;6.05;100.00
72896;BME280;61036;53.224;6.554;2023-01-10T13:08:26;101448.00;;;6.04;100.00
72896;BME280;61036;53.224;6.554;2023-01-10T13:10:57;101442.34;;;6.10;100.00
72896;BME280;61036;53.224;6.554;2023-01-10T13:15:53;101435.88;;;5.95;100.00
72896;BME280;61036;53.224;6.554;2023-01-10T13:18:28;101442.91;;;5.98;100.00
72896;BME280;61036;53.224;6.554;2023-01-10T13:21:05;101433.22;;;5.95;100.00
72896;BME280;61036;53.224;6.554;2023-01-10T13:23:48;101438.38;;;6.00;100.00
72896;BME280;61036;53.224;6.554;2023-01-10T13:26:15;101428.47;;;6.02;100.00
72896;BME280;61036;53.224;6.554;2023-01-10T13:28:55;101441.84;;;6.02;100.00
72896;BME280;61036;53.224;6.554;2023-01-10T13:31:28;101438.66;;;5.94;100.00
72896;BME280;61036;53.224;6.554;2023-01-10T13:34:08;101435.75;;;5.99;100.00
72896;BME280;61036;53.224;6.554;2023-01-10T13:36:48;101437.50;;;6.00;100.00
72896;BME280;61036;53.224;6.554;2023-01-10T13:39:35;101425.13;;;5.97;100.00
72896;BME280;61036;53.224;6.554;2023-01-10T14:04:20;101359.06;;;5.98;100.00
72896;BME280;61036;53.224;6.554;2023-01-10T14:07:20;101356.72;;;5.90;100.00
72896;BME280;61036;53.224;6.554;2023-01-10T14:09:48;101344.66;;;5.81;100.00
72896;BME280;61036;53.224;6.554;2023-01-10T14:12:32;101344.66;;;5.81;100.00
72896;BME280;61036;53.224;6.554;2023-01-10T14:15:19;101340.06;;;5.83;100.00
72896;BME280;61036;53.224;6.554;2023-01-10T14:20:24;101331.13;;;5.84;100.00
72896;BME280;61036;53.224;6.554;2023-01-10T14:23:19;101329.22;;;5.86;100.00
72896;BME280;61036;53.224;6.554;2023-01-10T14:25:55;101319.84;;;5.78;100.00
72896;BME280;61036;53.224;6.554;2023-01-10T14:28:28;101315.34;;;5.78;100.00
72896;BME280;61036;53.224;6.554;2023-01-10T14:33:31;101303.28;;;5.69;100.00
72896;BME280;61036;53.224;6.554;2023-01-10T14:36:01;101300.59;;;5.69;100.00
72896;BME280;61036;53.224;6.554;2023-01-10T14:38:31;101291.56;;;5.72;100.00
72896;BME280;61036;53.224;6.554;2023-01-10T14:41:27;101285.97;;;5.77;100.00
72896;BME280;61036;53.224;6.554;2023-01-10T14:44:16;101284.97;;;5.79;100.00